Hoytsville, Utah
Current Conditions -  °F | °C
As of 5:53 PM on Tuesday 25 Nov 2014 (Local Time) from KEVW Reporting Station
Unknown Precip Unknown Precip  
Wind Chill: 18°   Ceiling: 3300
Heat Index: 32°   Visibility: 7mi
Dew Point: 30°   Wind: 28mph
Humidity: 92%   Direction: 230°SW
Pressure: 30.22"   Gusts: 36mph
Location:  40.9431°N, 111.212°W
Report Text: KEVW 260053Z AUTO 23024G31KT 7SM UP FEW008 BKN033 OVC045 00/M01 A3022 RMK AO2 PK WND 23031/0036 UPB41 SLP253 P0000 T00001011
Loading
Personal Weather Stations






























Interactive Weather Map New forecast layout! Learn more

10-Day Weather Forecast

Advertisements
Track Severe Weather on mobile